Time;durP1;ratioP1;P1;durP2;ratioP2;P2;SDS_P1;SDS_P2;PMS_P1;PMS_P2;Temp;Humidity;BMP_temperature;BMP_pressure;BME280_temperature;BME280_humidity;BME280_pressure;Samples;Min_cycle;Max_cycle;Signal;HPM_P1;HPM_P2
2023/05/31 00:00:46;;;;;;;;;;;11.30;99.90;;;;;;5128013;27;20378;-43
2023/05/31 00:03:11;;;;;;;;;;;11.30;99.90;;;;;;5115720;28;19934;-43
2023/05/31 00:05:37;;;;;;;;;;;11.20;99.90;;;;;;5114996;28;20320;-48
2023/05/31 00:08:02;;;;;;;;;;;11.20;99.90;;;;;;5114913;28;19912;-44
2023/05/31 00:10:27;;;;;;;;;;;11.10;99.90;;;;;;5119992;27;19911;-43
2023/05/31 00:12:53;;;;;;;;;;;11.10;99.90;;;;;;5120900;27;19924;-44
2023/05/31 00:15:18;;;;;;;;;;;11.10;99.90;;;;;;5133913;27;20249;-43
2023/05/31 00:17:44;;;;;;;;;;;11.00;99.90;;;;;;5117697;27;19915;-46
2023/05/31 00:20:10;;;;;;;;;;;11.00;99.90;;;;;;5116643;27;19923;-43
2023/05/31 00:22:35;;;;;;;;;;;11.00;99.90;;;;;;5135461;27;19915;-45
2023/05/31 00:25:00;;;;;;;;;;;11.00;99.90;;;;;;5134111;27;19912;-42
2023/05/31 00:27:26;;;;;;;;;;;11.00;99.90;;;;;;5133037;27;20004;-43
2023/05/31 00:29:51;;;;;;;;;;;11.00;99.90;;;;;;5134775;27;19911;-48
2023/05/31 00:32:17;;;;;;;;;;;11.00;99.90;;;;;;5134220;27;19979;-45
2023/05/31 00:34:42;;;;;;;;;;;11.00;99.90;;;;;;5134374;27;19915;-49
2023/05/31 00:37:08;;;;;;;;;;;11.00;99.90;;;;;;5133620;27;20373;-43
2023/05/31 00:39:33;;;;;;;;;;;11.00;99.90;;;;;;5134898;27;19907;-43
2023/05/31 00:41:59;;;;;;;;;;;11.00;99.90;;;;;;5132428;27;20316;-43
2023/05/31 00:44:24;;;;;;;;;;;10.90;99.90;;;;;;5134517;27;19973;-45
2023/05/31 00:46:50;;;;;;;;;;;10.90;99.90;;;;;;5119730;27;19918;-42
2023/05/31 00:49:15;;;;;;;;;;;11.00;99.90;;;;;;5113988;28;19961;-43
2023/05/31 00:51:41;;;;;;;;;;;10.90;99.90;;;;;;5126785;27;19924;-44
2023/05/31 00:54:07;;;;;;;;;;;10.90;99.90;;;;;;5135103;27;19914;-43
2023/05/31 00:56:33;;;;;;;;;;;11.00;99.90;;;;;;5132642;27;19911;-45
2023/05/31 00:58:59;;;;;;;;;;;10.90;99.90;;;;;;5133953;27;19911;-42
2023/05/31 01:01:32;;;;;;;;;;;11.00;99.90;;;;;;5122978;27;19972;-43
2023/05/31 01:03:58;;;;;;;;;;;10.90;99.90;;;;;;5113568;28;20389;-47
2023/05/31 01:06:24;;;;;;;;;;;10.90;99.90;;;;;;5130166;27;19912;-43
2023/05/31 01:08:50;;;;;;;;;;;10.90;99.90;;;;;;5134622;27;19908;-44
2023/05/31 01:11:34;;;;;;;;;;;10.90;99.90;;;;;;5132760;27;20006;-44
2023/05/31 01:14:11;;;;;;;;;;;10.90;99.90;;;;;;5134003;27;19968;-44
2023/05/31 01:16:42;;;;;;;;;;;10.90;99.90;;;;;;5131740;27;20385;-43
2023/05/31 01:19:12;;;;;;;;;;;10.90;99.90;;;;;;5134832;27;19946;-44
2023/05/31 01:21:51;;;;;;;;;;;10.80;99.90;;;;;;5120996;27;19916;-44
2023/05/31 01:24:34;;;;;;;;;;;10.80;99.90;;;;;;5113464;28;19916;-44
2023/05/31 01:27:01;;;;;;;;;;;10.80;99.90;;;;;;5123561;27;20316;-44
2023/05/31 01:29:29;;;;;;;;;;;10.80;99.90;;;;;;5133624;27;20278;-45
2023/05/31 01:31:55;;;;;;;;;;;10.80;99.90;;;;;;5131784;27;19919;-47
2023/05/31 01:34:20;;;;;;;;;;;10.80;99.90;;;;;;5132500;27;19915;-42
2023/05/31 01:36:46;;;;;;;;;;;10.80;99.90;;;;;;5133322;27;20025;-46
2023/05/31 01:39:11;;;;;;;;;;;10.80;99.90;;;;;;5132403;27;19911;-44
2023/05/31 01:41:41;;;;;;;;;;;10.80;99.90;;;;;;5132530;27;19911;-44
2023/05/31 01:44:08;;;;;;;;;;;10.80;99.90;;;;;;5132292;27;19918;-42
2023/05/31 01:46:33;;;;;;;;;;;10.80;99.90;;;;;;5131937;27;19912;-44
2023/05/31 01:49:00;;;;;;;;;;;10.80;99.90;;;;;;5133165;27;20053;-43
2023/05/31 01:51:26;;;;;;;;;;;10.70;99.90;;;;;;5133189;27;20252;-44
2023/05/31 01:53:52;;;;;;;;;;;10.70;99.90;;;;;;5133288;27;19972;-42
2023/05/31 01:56:20;;;;;;;;;;;10.70;99.90;;;;;;5132612;27;19923;-44
2023/05/31 01:58:48;;;;;;;;;;;10.60;99.90;;;;;;5131728;27;20258;-44
2023/05/31 02:01:14;;;;;;;;;;;10.60;99.90;;;;;;5131865;27;19969;-43
2023/05/31 02:03:40;;;;;;;;;;;10.60;99.90;;;;;;5133628;27;19946;-43
2023/05/31 02:06:05;;;;;;;;;;;10.50;99.90;;;;;;5131801;27;19952;-42
2023/05/31 02:08:31;;;;;;;;;;;10.50;99.90;;;;;;5133666;27;19930;-43
2023/05/31 02:10:56;;;;;;;;;;;10.50;99.90;;;;;;5133341;27;19907;-42
2023/05/31 02:13:26;;;;;;;;;;;10.50;99.90;;;;;;5131513;27;19923;-42
2023/05/31 02:15:51;;;;;;;;;;;10.50;99.90;;;;;;5125397;27;19973;-43
2023/05/31 02:18:17;;;;;;;;;;;10.40;99.90;;;;;;5131874;27;20274;-42
2023/05/31 02:20:43;;;;;;;;;;;10.40;99.90;;;;;;5132333;27;19951;-50
2023/05/31 02:23:08;;;;;;;;;;;10.40;99.90;;;;;;5133395;27;19914;-44
2023/05/31 02:25:34;;;;;;;;;;;10.50;99.90;;;;;;5124056;27;20411;-44
2023/05/31 02:27:59;;;;;;;;;;;10.40;99.90;;;;;;5119566;27;19972;-44
2023/05/31 02:30:26;;;;;;;;;;;10.40;99.90;;;;;;5118401;27;20057;-43
2023/05/31 02:32:53;;;;;;;;;;;10.30;99.90;;;;;;5123694;27;20278;-43
2023/05/31 02:35:19;;;;;;;;;;;10.30;99.90;;;;;;5130009;27;20315;-43
2023/05/31 02:37:45;;;;;;;;;;;10.30;99.90;;;;;;5132442;27;20010;-45
2023/05/31 02:40:10;;;;;;;;;;;10.30;99.90;;;;;;5120181;27;20344;-48
2023/05/31 02:42:38;;;;;;;;;;;10.20;99.90;;;;;;5128542;27;19912;-43
2023/05/31 02:45:04;;;;;;;;;;;10.20;99.90;;;;;;5132457;27;19998;-43
2023/05/31 02:47:29;;;;;;;;;;;10.10;99.90;;;;;;5131848;27;20002;-44
2023/05/31 02:49:55;;;;;;;;;;;10.10;99.90;;;;;;5132038;27;20414;-43
2023/05/31 02:52:23;;;;;;;;;;;10.00;99.90;;;;;;5130591;27;19923;-42
2023/05/31 02:54:49;;;;;;;;;;;10.00;99.90;;;;;;5130193;27;19915;-45
2023/05/31 02:57:14;;;;;;;;;;;10.00;99.90;;;;;;5131540;27;19912;-45
2023/05/31 02:59:40;;;;;;;;;;;10.00;99.90;;;;;;5132642;27;19912;-44
2023/05/31 03:02:05;;;;;;;;;;;10.00;99.90;;;;;;5130888;27;19942;-47
2023/05/31 03:04:31;;;;;;;;;;;10.00;99.90;;;;;;5132528;28;20305;-44
2023/05/31 03:06:57;;;;;;;;;;;10.00;99.90;;;;;;5131249;28;19911;-44
2023/05/31 03:09:23;;;;;;;;;;;10.00;99.90;;;;;;5128493;28;20673;-43
2023/05/31 03:11:48;;;;;;;;;;;10.00;99.90;;;;;;5111981;28;19916;-41
2023/05/31 03:14:13;;;;;;;;;;;10.00;99.90;;;;;;5128634;28;20452;-43
2023/05/31 03:16:39;;;;;;;;;;;10.00;99.90;;;;;;5126794;28;20288;-43
2023/05/31 03:19:04;;;;;;;;;;;10.00;99.90;;;;;;5132588;28;19907;-44
2023/05/31 03:21:30;;;;;;;;;;;10.00;99.90;;;;;;5132558;28;20010;-41
2023/05/31 03:23:55;;;;;;;;;;;10.00;99.90;;;;;;5126956;28;19919;-44
2023/05/31 03:26:21;;;;;;;;;;;10.00;99.90;;;;;;5123411;28;20267;-44
2023/05/31 03:28:46;;;;;;;;;;;10.00;99.90;;;;;;5130466;28;19917;-42
2023/05/31 03:31:12;;;;;;;;;;;10.00;99.90;;;;;;5130480;28;20361;-43
2023/05/31 03:33:37;;;;;;;;;;;10.00;99.90;;;;;;5128853;28;19954;-42
2023/05/31 03:36:03;;;;;;;;;;;10.00;99.90;;;;;;5128762;28;19919;-44
2023/05/31 03:38:29;;;;;;;;;;;10.00;99.90;;;;;;5131876;28;19964;-43
2023/05/31 03:40:54;;;;;;;;;;;10.00;99.90;;;;;;5130518;28;19936;-45
2023/05/31 03:43:20;;;;;;;;;;;10.00;99.90;;;;;;5130745;28;19956;-42
2023/05/31 03:45:45;;;;;;;;;;;10.00;99.90;;;;;;5128699;28;19912;-42
2023/05/31 03:48:13;;;;;;;;;;;10.00;99.90;;;;;;5113730;28;20293;-42
2023/05/31 03:50:39;;;;;;;;;;;10.00;99.90;;;;;;5130632;28;19958;-45
2023/05/31 03:53:04;;;;;;;;;;;10.00;99.90;;;;;;5131368;28;20006;-43
2023/05/31 03:55:30;;;;;;;;;;;10.00;99.90;;;;;;5130732;28;20425;-43
2023/05/31 03:57:56;;;;;;;;;;;10.00;99.90;;;;;;5130251;28;20361;-42
2023/05/31 04:00:21;;;;;;;;;;;10.00;99.90;;;;;;5131252;27;20525;-42
2023/05/31 04:02:47;;;;;;;;;;;10.10;99.90;;;;;;5115279;28;19908;-44
2023/05/31 04:05:12;;;;;;;;;;;10.00;99.90;;;;;;5115539;27;19966;-45
2023/05/31 04:07:37;;;;;;;;;;;10.00;99.90;;;;;;5125144;27;20510;-43
2023/05/31 04:10:03;;;;;;;;;;;10.00;99.90;;;;;;5135356;27;19990;-44
2023/05/31 04:12:29;;;;;;;;;;;10.00;99.90;;;;;;5114550;28;19916;-43
2023/05/31 04:14:54;;;;;;;;;;;10.00;99.90;;;;;;5121428;27;19911;-46
2023/05/31 04:17:19;;;;;;;;;;;10.10;99.90;;;;;;5123822;27;19911;-42
2023/05/31 04:19:45;;;;;;;;;;;10.10;99.90;;;;;;5134651;27;19986;-43
2023/05/31 04:22:10;;;;;;;;;;;10.10;99.90;;;;;;5135840;27;19911;-44
2023/05/31 04:24:36;;;;;;;;;;;10.20;99.90;;;;;;5133709;27;19916;-44
2023/05/31 04:27:03;;;;;;;;;;;10.20;99.90;;;;;;5119753;27;20228;-43
2023/05/31 04:29:28;;;;;;;;;;;10.20;99.90;;;;;;5123088;27;19915;-48
2023/05/31 04:31:54;;;;;;;;;;;10.20;99.90;;;;;;5132583;27;19926;-43
2023/05/31 04:34:20;;;;;;;;;;;10.30;99.90;;;;;;5133687;27;19919;-43
2023/05/31 04:36:48;;;;;;;;;;;10.30;99.90;;;;;;5134801;27;19923;-43
2023/05/31 04:39:15;;;;;;;;;;;10.30;99.90;;;;;;5122341;27;20471;-43
2023/05/31 04:41:41;;;;;;;;;;;10.40;99.90;;;;;;5131761;27;19915;-44
2023/05/31 04:44:07;;;;;;;;;;;10.40;99.90;;;;;;5127841;27;19919;-43
2023/05/31 04:46:32;;;;;;;;;;;10.50;99.90;;;;;;5133202;27;19911;-46
2023/05/31 04:48:58;;;;;;;;;;;10.50;99.90;;;;;;5131264;27;19907;-44
2023/05/31 04:51:24;;;;;;;;;;;10.60;99.90;;;;;;5127599;27;20323;-43
2023/05/31 04:53:49;;;;;;;;;;;10.70;99.90;;;;;;5133790;27;19977;-44
2023/05/31 04:56:15;;;;;;;;;;;10.60;99.90;;;;;;5132622;27;19918;-44
2023/05/31 04:58:40;;;;;;;;;;;10.70;99.90;;;;;;5132753;27;19907;-42
2023/05/31 05:01:06;;;;;;;;;;;10.80;99.90;;;;;;5127061;27;19911;-46
2023/05/31 05:03:32;;;;;;;;;;;10.80;99.90;;;;;;5132957;27;19912;-46
2023/05/31 05:06:00;;;;;;;;;;;10.80;99.90;;;;;;5134917;27;19911;-42
2023/05/31 05:08:25;;;;;;;;;;;10.90;99.90;;;;;;5125377;27;20375;-44
2023/05/31 05:10:51;;;;;;;;;;;10.90;99.90;;;;;;5112830;27;19976;-42
2023/05/31 05:13:16;;;;;;;;;;;10.90;99.90;;;;;;5116587;27;19919;-45
2023/05/31 05:15:42;;;;;;;;;;;11.00;99.90;;;;;;5126508;27;19956;-43
2023/05/31 05:18:07;;;;;;;;;;;11.10;99.90;;;;;;5118708;27;19915;-42
2023/05/31 05:20:33;;;;;;;;;;;11.10;99.90;;;;;;5127972;27;19912;-43
2023/05/31 05:23:02;;;;;;;;;;;11.10;99.90;;;;;;5122289;27;19930;-45
2023/05/31 05:25:27;;;;;;;;;;;11.20;99.90;;;;;;5134553;27;19911;-43
2023/05/31 05:27:53;;;;;;;;;;;11.30;99.90;;;;;;5126769;27;19911;-44
2023/05/31 05:30:18;;;;;;;;;;;11.30;99.90;;;;;;5125060;27;20010;-43
2023/05/31 05:32:44;;;;;;;;;;;11.40;99.90;;;;;;5113407;28;19922;-43
2023/05/31 05:35:09;;;;;;;;;;;11.40;99.90;;;;;;5119682;27;19911;-44
2023/05/31 05:37:35;;;;;;;;;;;11.50;99.90;;;;;;5132939;27;19919;-43
2023/05/31 05:40:00;;;;;;;;;;;11.50;99.90;;;;;;5131899;27;19912;-42
2023/05/31 05:42:27;;;;;;;;;;;11.60;99.90;;;;;;5133842;27;19958;-43
2023/05/31 05:44:53;;;;;;;;;;;11.70;99.90;;;;;;5131552;27;19911;-45
2023/05/31 05:47:18;;;;;;;;;;;11.70;99.90;;;;;;5104519;27;19957;-42
2023/05/31 05:49:43;;;;;;;;;;;11.80;99.90;;;;;;5132693;27;19911;-43
2023/05/31 05:52:09;;;;;;;;;;;11.90;99.90;;;;;;5133267;27;19915;-43
2023/05/31 05:54:34;;;;;;;;;;;11.90;99.90;;;;;;5133779;27;19911;-45
2023/05/31 05:57:01;;;;;;;;;;;12.00;99.90;;;;;;5132030;27;19964;-43
2023/05/31 05:59:27;;;;;;;;;;;12.10;99.90;;;;;;5130052;27;19942;-43
2023/05/31 06:01:52;;;;;;;;;;;12.10;99.90;;;;;;5122166;27;19962;-44
2023/05/31 06:04:18;;;;;;;;;;;12.10;99.90;;;;;;5133786;27;19918;-42
2023/05/31 06:06:43;;;;;;;;;;;12.20;99.90;;;;;;5132905;27;20303;-44
2023/05/31 06:09:09;;;;;;;;;;;12.30;99.90;;;;;;5132753;27;19911;-45
2023/05/31 06:11:34;;;;;;;;;;;12.40;99.90;;;;;;5119263;27;19923;-43
2023/05/31 06:14:00;;;;;;;;;;;12.40;99.90;;;;;;5115793;27;19916;-45
2023/05/31 06:16:25;;;;;;;;;;;12.50;99.90;;;;;;5129594;27;20167;-43
2023/05/31 06:18:51;;;;;;;;;;;12.60;99.90;;;;;;5132344;27;20289;-43
2023/05/31 06:21:16;;;;;;;;;;;12.60;99.90;;;;;;5132667;27;19908;-43
2023/05/31 06:23:42;;;;;;;;;;;12.70;99.90;;;;;;5112388;28;19934;-43
2023/05/31 06:26:07;;;;;;;;;;;12.70;99.90;;;;;;5127827;27;19911;-43
2023/05/31 06:28:34;;;;;;;;;;;12.80;99.90;;;;;;5124509;27;20441;-45
2023/05/31 06:31:00;;;;;;;;;;;12.90;99.90;;;;;;5118793;27;19912;-43
2023/05/31 06:33:26;;;;;;;;;;;12.90;99.90;;;;;;5131210;27;20389;-43
2023/05/31 06:35:51;;;;;;;;;;;13.00;99.90;;;;;;5131100;27;19919;-43
2023/05/31 06:38:17;;;;;;;;;;;13.10;99.90;;;;;;5132120;27;19972;-45
2023/05/31 06:40:43;;;;;;;;;;;13.10;99.90;;;;;;5132173;27;19914;-46
2023/05/31 06:43:10;;;;;;;;;;;13.30;99.90;;;;;;5127382;27;20007;-44
2023/05/31 06:45:35;;;;;;;;;;;13.30;99.90;;;;;;5111803;27;20428;-45
2023/05/31 06:48:00;;;;;;;;;;;13.40;99.90;;;;;;5122931;27;19915;-42
2023/05/31 06:50:26;;;;;;;;;;;13.50;99.90;;;;;;5133116;27;19911;-43
2023/05/31 06:52:51;;;;;;;;;;;13.60;99.90;;;;;;5131005;27;20551;-45
2023/05/31 06:55:17;;;;;;;;;;;13.70;99.90;;;;;;5132397;27;19914;-44
2023/05/31 06:57:42;;;;;;;;;;;13.80;99.90;;;;;;5115329;27;20285;-49
2023/05/31 07:00:08;;;;;;;;;;;13.90;99.90;;;;;;5129065;27;19908;-43
2023/05/31 07:02:33;;;;;;;;;;;13.90;99.90;;;;;;5113390;28;19999;-44
2023/05/31 07:04:59;;;;;;;;;;;14.00;99.90;;;;;;5130656;28;20032;-46
2023/05/31 07:07:26;;;;;;;;;;;14.10;99.90;;;;;;5112402;28;19915;-46
2023/05/31 07:09:51;;;;;;;;;;;14.20;99.90;;;;;;5111305;28;19912;-43
2023/05/31 07:12:17;;;;;;;;;;;14.30;99.90;;;;;;5127064;28;19923;-45
2023/05/31 07:14:42;;;;;;;;;;;14.40;99.90;;;;;;5128720;28;19911;-58
2023/05/31 07:17:08;;;;;;;;;;;14.50;99.90;;;;;;5117255;28;19911;-43
2023/05/31 07:19:42;;;;;;;;;;;14.50;99.90;;;;;;5124074;28;19912;-45
2023/05/31 07:22:08;;;;;;;;;;;14.60;99.90;;;;;;5132000;28;20362;-44
2023/05/31 07:24:33;;;;;;;;;;;14.70;99.90;;;;;;5117881;28;19919;-45
2023/05/31 07:26:58;;;;;;;;;;;14.80;99.90;;;;;;5112240;28;20421;-43
2023/05/31 07:29:24;;;;;;;;;;;14.80;99.90;;;;;;5122849;28;19935;-46
2023/05/31 07:31:49;;;;;;;;;;;14.90;99.90;;;;;;5128786;28;20004;-43
2023/05/31 07:34:15;;;;;;;;;;;15.00;99.90;;;;;;5128277;27;19912;-44
2023/05/31 07:36:41;;;;;;;;;;;15.10;99.90;;;;;;5123211;27;20282;-43
2023/05/31 07:39:10;;;;;;;;;;;15.20;99.90;;;;;;5136845;27;19907;-44
2023/05/31 07:41:36;;;;;;;;;;;15.20;99.90;;;;;;5130274;27;19916;-44
2023/05/31 07:44:02;;;;;;;;;;;15.30;99.90;;;;;;5132721;27;19994;-44
2023/05/31 07:46:28;;;;;;;;;;;15.40;99.90;;;;;;5133652;27;19916;-45
2023/05/31 07:48:54;;;;;;;;;;;15.40;99.90;;;;;;5136089;27;20048;-45
2023/05/31 07:51:19;;;;;;;;;;;15.50;99.90;;;;;;5135714;27;19960;-45
2023/05/31 07:53:46;;;;;;;;;;;15.60;99.90;;;;;;5134175;27;20016;-44
2023/05/31 07:56:12;;;;;;;;;;;15.70;99.90;;;;;;5136477;27;19918;-46
2023/05/31 07:58:38;;;;;;;;;;;15.80;99.90;;;;;;5132722;27;19919;-43
2023/05/31 08:01:03;;;;;;;;;;;15.90;99.90;;;;;;5131649;27;19918;-45
2023/05/31 08:03:30;;;;;;;;;;;15.90;99.90;;;;;;5126740;27;19935;-46
2023/05/31 08:05:55;;;;;;;;;;;16.00;99.90;;;;;;5121235;27;19912;-45
2023/05/31 08:08:21;;;;;;;;;;;16.10;99.90;;;;;;5120737;27;19919;-43
2023/05/31 08:10:46;;;;;;;;;;;16.20;99.90;;;;;;5130159;27;19954;-48
2023/05/31 08:13:12;;;;;;;;;;;16.30;99.90;;;;;;5128478;27;19934;-43
2023/05/31 08:15:37;;;;;;;;;;;16.40;99.90;;;;;;5127829;27;20957;-44
2023/05/31 08:18:02;;;;;;;;;;;16.50;99.90;;;;;;5122705;27;19955;-47
2023/05/31 08:20:28;;;;;;;;;;;16.50;99.90;;;;;;5125081;27;20262;-43
2023/05/31 08:22:54;;;;;;;;;;;16.70;99.90;;;;;;5135621;27;19939;-44
2023/05/31 08:25:22;;;;;;;;;;;16.70;99.90;;;;;;5133611;27;19921;-43
2023/05/31 08:27:47;;;;;;;;;;;16.80;99.90;;;;;;5124561;27;19915;-47
2023/05/31 08:30:13;;;;;;;;;;;16.90;99.90;;;;;;5125591;27;20251;-45
2023/05/31 08:32:40;;;;;;;;;;;17.00;99.90;;;;;;5123963;27;19920;-48
2023/05/31 08:35:06;;;;;;;;;;;17.10;99.90;;;;;;5113193;28;19908;-43
2023/05/31 08:37:32;;;;;;;;;;;17.20;99.90;;;;;;5117331;27;19927;-49
2023/05/31 08:39:58;;;;;;;;;;;17.30;99.90;;;;;;5128193;27;20036;-44
2023/05/31 08:42:30;;;;;;;;;;;17.30;99.90;;;;;;5116815;27;20246;-44
2023/05/31 08:44:56;;;;;;;;;;;17.50;99.90;;;;;;5126549;27;19919;-44
2023/05/31 08:47:35;;;;;;;;;;;17.60;99.90;;;;;;5131196;27;19994;-45
2023/05/31 08:50:00;;;;;;;;;;;17.70;99.90;;;;;;5129855;27;19939;-48
2023/05/31 08:52:27;;;;;;;;;;;17.80;99.90;;;;;;5120712;27;19962;-45
2023/05/31 08:54:53;;;;;;;;;;;17.80;99.90;;;;;;5118827;27;20369;-48
2023/05/31 08:57:19;;;;;;;;;;;18.00;99.90;;;;;;5119301;27;19919;-45
2023/05/31 08:59:45;;;;;;;;;;;18.00;99.90;;;;;;5123959;27;20386;-44
2023/05/31 09:02:12;;;;;;;;;;;18.10;99.90;;;;;;5120564;27;19926;-42
2023/05/31 09:04:39;;;;;;;;;;;18.20;99.90;;;;;;5121883;27;19912;-44
2023/05/31 09:07:05;;;;;;;;;;;18.20;99.90;;;;;;5125929;27;19938;-45
2023/05/31 09:09:30;;;;;;;;;;;18.40;99.90;;;;;;5111867;27;20378;-48
2023/05/31 09:11:56;;;;;;;;;;;18.40;99.90;;;;;;5132646;27;19923;-44
2023/05/31 09:14:22;;;;;;;;;;;18.50;99.90;;;;;;5131921;27;19918;-45
2023/05/31 09:16:49;;;;;;;;;;;18.50;99.90;;;;;;5115554;27;20611;-46
2023/05/31 09:19:15;;;;;;;;;;;18.60;99.90;;;;;;5126269;27;19911;-44
2023/05/31 09:21:41;;;;;;;;;;;18.70;99.90;;;;;;5132877;27;19918;-45
2023/05/31 09:24:07;;;;;;;;;;;18.90;99.90;;;;;;5117959;27;20135;-44
2023/05/31 09:26:33;;;;;;;;;;;18.90;99.90;;;;;;5116630;27;19922;-45
2023/05/31 09:28:59;;;;;;;;;;;19.00;99.90;;;;;;5114396;27;19911;-44
2023/05/31 09:31:25;;;;;;;;;;;19.20;99.90;;;;;;5118094;27;19911;-44
2023/05/31 09:33:56;;;;;;;;;;;19.30;99.90;;;;;;5113693;27;19935;-43
2023/05/31 09:36:25;;;;;;;;;;;19.30;99.90;;;;;;5120283;27;19919;-51
2023/05/31 09:38:57;;;;;;;;;;;19.40;99.90;;;;;;5126581;27;20006;-45
2023/05/31 09:41:23;;;;;;;;;;;19.40;99.90;;;;;;5126289;27;19921;-44
2023/05/31 09:43:49;;;;;;;;;;;19.50;99.90;;;;;;5119202;27;20006;-45
2023/05/31 09:46:15;;;;;;;;;;;19.60;99.90;;;;;;5121613;27;19943;-44
2023/05/31 09:48:41;;;;;;;;;;;19.70;99.90;;;;;;5122841;27;19919;-44
2023/05/31 09:51:10;;;;;;;;;;;19.70;99.90;;;;;;5123830;27;19964;-44
2023/05/31 09:53:37;;;;;;;;;;;19.80;99.90;;;;;;5123940;27;19919;-46
2023/05/31 09:56:07;;;;;;;;;;;19.80;99.90;;;;;;5122012;27;19920;-46
2023/05/31 09:58:33;;;;;;;;;;;19.90;99.90;;;;;;5121575;27;19934;-44
2023/05/31 10:00:58;;;;;;;;;;;20.00;99.90;;;;;;5122171;27;20686;-45
2023/05/31 10:03:26;;;;;;;;;;;20.10;99.90;;;;;;5118884;27;19930;-45
2023/05/31 10:05:52;;;;;;;;;;;20.10;99.90;;;;;;5125878;27;20327;-45
2023/05/31 10:08:17;;;;;;;;;;;20.20;99.90;;;;;;5125575;27;19957;-44
2023/05/31 10:10:43;;;;;;;;;;;20.30;99.90;;;;;;5125741;27;19916;-47
2023/05/31 10:13:11;;;;;;;;;;;20.30;99.90;;;;;;5124487;27;19927;-47
2023/05/31 10:15:37;;;;;;;;;;;20.40;99.90;;;;;;5126259;27;19915;-45
2023/05/31 10:18:05;;;;;;;;;;;20.40;99.90;;;;;;5123297;27;19980;-46
2023/05/31 10:20:57;;;;;;;;;;;20.50;99.90;;;;;;5124765;27;19911;-44
2023/05/31 10:23:23;;;;;;;;;;;20.60;99.90;;;;;;5091057;27;19916;-47
2023/05/31 10:26:08;;;;;;;;;;;20.70;99.90;;;;;;5130684;27;20002;-45
2023/05/31 10:28:38;;;;;;;;;;;20.70;99.90;;;;;;5133114;27;19907;-44
2023/05/31 10:31:04;;;;;;;;;;;20.80;99.90;;;;;;5129681;27;19911;-45
2023/05/31 10:33:30;;;;;;;;;;;20.80;99.90;;;;;;5132481;27;20389;-44
2023/05/31 10:35:59;;;;;;;;;;;20.80;99.90;;;;;;5132826;27;19907;-44
2023/05/31 10:38:27;;;;;;;;;;;20.90;99.90;;;;;;5125528;27;19954;-43
2023/05/31 10:40:56;;;;;;;;;;;21.00;99.00;;;;;;5109023;27;20297;-44
2023/05/31 10:43:39;;;;;;;;;;;21.10;99.30;;;;;;5131274;27;19957;-45
2023/05/31 10:46:25;;;;;;;;;;;21.20;98.60;;;;;;5125635;27;19915;-45
2023/05/31 10:48:52;;;;;;;;;;;21.30;99.90;;;;;;5111585;28;19919;-45
2023/05/31 10:51:18;;;;;;;;;;;21.60;99.90;;;;;;5111523;28;19949;-44
2023/05/31 10:53:45;;;;;;;;;;;21.60;99.40;;;;;;5116782;27;19965;-44
2023/05/31 10:56:13;;;;;;;;;;;21.70;99.90;;;;;;5112818;28;20294;-43
2023/05/31 10:58:42;;;;;;;;;;;21.80;99.90;;;;;;5116441;27;19915;-43
2023/05/31 11:01:08;;;;;;;;;;;21.80;99.70;;;;;;5130613;27;19911;-45
2023/05/31 11:03:34;;;;;;;;;;;21.90;99.90;;;;;;5132093;27;19911;-44
2023/05/31 11:06:01;;;;;;;;;;;22.00;99.90;;;;;;5132950;28;19907;-44
2023/05/31 11:08:27;;;;;;;;;;;22.00;99.90;;;;;;5130850;27;19911;-46
2023/05/31 11:11:13;;;;;;;;;;;21.90;99.80;;;;;;5131991;28;19954;-45
2023/05/31 11:14:00;;;;;;;;;;;21.70;99.90;;;;;;5130264;28;19949;-43
2023/05/31 11:16:26;;;;;;;;;;;21.60;99.90;;;;;;5123632;28;20281;-45
2023/05/31 11:19:05;;;;;;;;;;;21.50;99.90;;;;;;5132583;28;19911;-45
2023/05/31 11:21:47;;;;;;;;;;;21.60;99.90;;;;;;5132016;28;19907;-43
2023/05/31 11:24:44;;;;;;;;;;;21.70;99.90;;;;;;5130862;28;19915;-50
2023/05/31 11:27:11;;;;;;;;;;;21.70;99.90;;;;;;5076021;28;19960;-45
2023/05/31 11:29:51;;;;;;;;;;;21.80;99.90;;;;;;5129360;28;19912;-49
2023/05/31 11:32:18;;;;;;;;;;;21.90;99.90;;;;;;5131499;28;19958;-46
2023/05/31 11:34:56;;;;;;;;;;;22.00;99.90;;;;;;5132338;28;19968;-47
2023/05/31 11:37:28;;;;;;;;;;;22.00;99.60;;;;;;5131243;28;19920;-46
2023/05/31 11:39:54;;;;;;;;;;;22.00;99.30;;;;;;5131718;28;19912;-45
2023/05/31 11:42:20;;;;;;;;;;;22.00;98.70;;;;;;5131858;28;19960;-44
2023/05/31 11:44:46;;;;;;;;;;;22.00;98.90;;;;;;5129908;28;20007;-45
2023/05/31 11:47:19;;;;;;;;;;;21.90;98.20;;;;;;5130885;28;19942;-44
2023/05/31 11:49:44;;;;;;;;;;;22.00;98.40;;;;;;5129765;28;19922;-50
2023/05/31 11:52:14;;;;;;;;;;;22.00;98.30;;;;;;5132434;28;19930;-45
2023/05/31 11:54:43;;;;;;;;;;;22.00;98.20;;;;;;5132142;28;19908;-44
2023/05/31 11:57:08;;;;;;;;;;;22.00;97.90;;;;;;5131820;28;19913;-49
2023/05/31 11:59:34;;;;;;;;;;;22.10;97.40;;;;;;5129690;28;20010;-47
2023/05/31 12:02:00;;;;;;;;;;;22.10;97.50;;;;;;5130553;28;19915;-45
2023/05/31 12:04:35;;;;;;;;;;;22.10;97.30;;;;;;5131831;28;19939;-46
2023/05/31 12:07:01;;;;;;;;;;;22.20;97.10;;;;;;5132377;28;19915;-45
2023/05/31 12:09:27;;;;;;;;;;;22.30;97.00;;;;;;5132354;28;19907;-45
2023/05/31 12:11:54;;;;;;;;;;;22.30;97.00;;;;;;5131135;28;19938;-50
2023/05/31 12:14:20;;;;;;;;;;;22.40;96.80;;;;;;5130630;28;19954;-45
2023/05/31 12:16:48;;;;;;;;;;;22.40;96.70;;;;;;5130132;28;19951;-45
2023/05/31 12:19:14;;;;;;;;;;;22.50;96.20;;;;;;5131530;28;19990;-44
2023/05/31 12:21:39;;;;;;;;;;;22.60;95.80;;;;;;5134228;27;19954;-44
2023/05/31 12:24:14;;;;;;;;;;;22.60;95.70;;;;;;5135948;27;19915;-47
2023/05/31 12:26:42;;;;;;;;;;;22.60;95.20;;;;;;5135557;27;19907;-43
2023/05/31 12:29:08;;;;;;;;;;;22.70;94.40;;;;;;5134402;27;19994;-45
2023/05/31 12:31:34;;;;;;;;;;;22.70;93.40;;;;;;5132602;27;20364;-44
2023/05/31 12:34:09;;;;;;;;;;;22.80;94.30;;;;;;5135747;27;19914;-44
2023/05/31 12:36:38;;;;;;;;;;;22.90;93.80;;;;;;5135347;27;20058;-43
2023/05/31 12:39:07;;;;;;;;;;;23.10;93.80;;;;;;5134998;27;19999;-44
2023/05/31 12:41:33;;;;;;;;;;;23.30;93.60;;;;;;5135165;27;19956;-46
2023/05/31 12:43:58;;;;;;;;;;;23.50;93.50;;;;;;5132292;27;19998;-48
2023/05/31 12:46:24;;;;;;;;;;;23.80;93.00;;;;;;5131861;27;19915;-45
2023/05/31 12:48:50;;;;;;;;;;;24.00;92.10;;;;;;5135259;27;20346;-44
2023/05/31 12:51:25;;;;;;;;;;;24.10;91.50;;;;;;5134016;27;20273;-43
2023/05/31 12:53:51;;;;;;;;;;;24.30;91.70;;;;;;5130544;27;19922;-43
2023/05/31 12:56:16;;;;;;;;;;;24.50;91.30;;;;;;5135274;27;19908;-46
2023/05/31 12:58:42;;;;;;;;;;;24.60;90.10;;;;;;5132174;27;19911;-44
2023/05/31 13:01:08;;;;;;;;;;;24.70;90.10;;;;;;5134588;27;19930;-45
2023/05/31 13:03:33;;;;;;;;;;;24.80;87.30;;;;;;5133099;27;19911;-44
2023/05/31 13:05:59;;;;;;;;;;;24.90;88.10;;;;;;5135066;27;20327;-47
2023/05/31 13:08:24;;;;;;;;;;;24.90;86.30;;;;;;5132579;27;19912;-44
2023/05/31 13:10:50;;;;;;;;;;;25.10;84.60;;;;;;5134527;27;19976;-45
2023/05/31 13:13:16;;;;;;;;;;;25.10;85.60;;;;;;5133191;27;19925;-48
2023/05/31 13:15:41;;;;;;;;;;;25.20;85.10;;;;;;5133807;27;20247;-44
2023/05/31 13:18:07;;;;;;;;;;;25.20;84.70;;;;;;5132194;27;19911;-46
2023/05/31 13:20:32;;;;;;;;;;;25.40;83.60;;;;;;5125951;27;20018;-44
2023/05/31 13:22:58;;;;;;;;;;;25.60;84.10;;;;;;5134707;27;19908;-45
2023/05/31 13:25:23;;;;;;;;;;;25.70;82.30;;;;;;5134713;27;19907;-45
2023/05/31 13:27:49;;;;;;;;;;;25.80;80.70;;;;;;5133339;27;20488;-44
2023/05/31 13:30:15;;;;;;;;;;;25.90;76.80;;;;;;5132862;27;19912;-45
2023/05/31 13:32:40;;;;;;;;;;;26.10;78.40;;;;;;5131707;27;19920;-47
2023/05/31 13:35:08;;;;;;;;;;;26.20;76.40;;;;;;5103557;28;20030;-45
2023/05/31 13:37:33;;;;;;;;;;;26.30;74.80;;;;;;5113317;28;19923;-46
2023/05/31 13:39:59;;;;;;;;;;;26.30;75.70;;;;;;5113850;28;19908;-46
2023/05/31 13:42:24;;;;;;;;;;;26.40;76.70;;;;;;5112846;28;19915;-48
2023/05/31 13:44:50;;;;;;;;;;;26.40;76.00;;;;;;5112276;28;19958;-44
2023/05/31 13:47:16;;;;;;;;;;;26.50;76.10;;;;;;5129844;27;19927;-45
2023/05/31 13:49:41;;;;;;;;;;;26.70;76.30;;;;;;5132000;27;19912;-45
2023/05/31 13:52:09;;;;;;;;;;;26.80;74.20;;;;;;5133972;27;19968;-46
2023/05/31 13:54:35;;;;;;;;;;;26.80;71.50;;;;;;5133902;27;19907;-45
2023/05/31 13:57:01;;;;;;;;;;;26.90;73.10;;;;;;5133087;27;20365;-45
2023/05/31 13:59:27;;;;;;;;;;;27.00;73.40;;;;;;5127439;27;19964;-45
2023/05/31 14:01:52;;;;;;;;;;;27.10;70.10;;;;;;5126667;27;19916;-47
2023/05/31 14:04:18;;;;;;;;;;;27.10;70.20;;;;;;5118010;27;19911;-44
2023/05/31 14:06:46;;;;;;;;;;;27.20;69.10;;;;;;5123854;27;19919;-44
2023/05/31 14:09:11;;;;;;;;;;;27.30;68.80;;;;;;5122295;27;19912;-44
2023/05/31 14:11:37;;;;;;;;;;;27.30;68.60;;;;;;5119379;27;19953;-45
2023/05/31 14:14:03;;;;;;;;;;;27.30;67.20;;;;;;5112910;27;20274;-45